Time;durP1;ratioP1;P1;durP2;ratioP2;P2;SDS_P1;SDS_P2;PMS_P1;PMS_P2;Temp;Humidity;BMP_temperature;BMP_pressure;BME280_temperature;BME280_humidity;BME280_pressure;Samples;Min_cycle;Max_cycle;Signal;HPM_P1;HPM_P2
2023/04/22 00:00:37;;;;;;;21.17;11.70;;;;;;;13.80;82.33;99162.97;5113266;28;20099;-75
2023/04/22 00:03:02;;;;;;;17.25;10.93;;;;;;;13.82;81.30;99165.44;5112519;28;20476;-76
2023/04/22 00:05:28;;;;;;;16.40;10.98;;;;;;;13.58;83.12;99165.25;5093811;28;20390;-75
2023/04/22 00:07:54;;;;;;;14.27;10.40;;;;;;;13.62;82.59;99159.72;5092445;28;20107;-75
2023/04/22 00:10:19;;;;;;;13.35;9.40;;;;;;;13.63;81.59;99161.34;5092707;28;20417;-76
2023/04/22 00:12:45;;;;;;;12.88;9.27;;;;;;;13.57;81.87;99166.44;5097222;28;20051;-75
2023/04/22 00:15:11;;;;;;;15.20;9.68;;;;;;;13.60;81.85;99162.91;5093678;28;20048;-75
2023/04/22 00:17:37;;;;;;;22.85;11.25;;;;;;;13.65;81.55;99163.81;5099527;28;20418;-75
2023/04/22 00:20:03;;;;;;;18.00;11.70;;;;;;;13.62;81.79;99165.34;5091566;28;20062;-75
2023/04/22 00:22:28;;;;;;;14.80;12.13;;;;;;;13.62;81.55;99156.91;5107728;28;20031;-75
2023/04/22 00:24:54;;;;;;;20.02;11.93;;;;;;;13.74;81.29;99162.44;5105177;28;20100;-76
2023/04/22 00:27:19;;;;;;;21.52;13.60;;;;;;;13.75;80.56;99158.44;5092491;28;20032;-75
2023/04/22 00:29:45;;;;;;;20.40;13.77;;;;;;;13.80;80.55;99159.34;5093281;28;20024;-76
2023/04/22 00:32:10;;;;;;;17.00;11.52;;;;;;;13.73;81.21;99154.38;5094378;28;20034;-75
2023/04/22 00:34:36;;;;;;;15.20;11.43;;;;;;;13.49;82.09;99144.94;5090134;28;20115;-76
2023/04/22 00:37:01;;;;;;;14.70;11.10;;;;;;;13.43;83.08;99158.41;5092226;28;20028;-76
2023/04/22 00:39:27;;;;;;;16.27;10.98;;;;;;;13.31;83.78;99150.91;5092125;28;20410;-76
2023/04/22 00:41:52;;;;;;;15.07;11.25;;;;;;;13.45;83.37;99158.94;5091590;28;20120;-76
2023/04/22 00:44:18;;;;;;;15.88;11.18;;;;;;;13.59;82.98;99157.66;5092682;28;20439;-75
2023/04/22 00:46:44;;;;;;;18.23;11.45;;;;;;;13.59;82.20;99157.66;5093992;28;20019;-75
2023/04/22 00:49:10;;;;;;;15.05;11.57;;;;;;;13.55;82.07;99163.19;5093645;28;20045;-76
2023/04/22 00:51:35;;;;;;;16.23;11.57;;;;;;;13.32;83.10;99163.78;5112376;28;20027;-76
2023/04/22 00:54:02;;;;;;;18.38;10.65;;;;;;;13.45;82.68;99169.34;5112157;28;20028;-76
2023/04/22 00:56:28;;;;;;;14.85;10.15;;;;;;;13.27;83.68;99166.84;5086635;28;20109;-76
2023/04/22 00:58:54;;;;;;;18.13;10.68;;;;;;;13.10;84.26;99170.00;5095305;28;20032;-76
2023/04/22 01:01:21;;;;;;;15.30;11.07;;;;;;;12.87;85.53;99177.00;5107551;28;20031;-75
2023/04/22 01:03:48;;;;;;;17.00;10.20;;;;;;;12.69;87.07;99179.31;5111452;28;20028;-75
2023/04/22 01:06:14;;;;;;;16.88;10.40;;;;;;;12.65;88.10;99172.75;5111701;28;20027;-75
2023/04/22 01:08:40;;;;;;;12.43;9.77;;;;;;;12.74;87.75;99170.63;5093394;28;20099;-76
2023/04/22 01:11:06;;;;;;;15.55;10.38;;;;;;;13.05;86.55;99173.88;5112059;28;20053;-76
2023/04/22 01:13:31;;;;;;;16.35;11.40;;;;;;;13.22;84.76;99163.50;5091372;28;20028;-76
2023/04/22 01:15:59;;;;;;;18.15;12.27;;;;;;;13.15;83.11;99170.53;5093428;28;20027;-76
2023/04/22 01:18:25;;;;;;;17.45;11.43;;;;;;;13.00;83.79;99169.34;5093950;28;20398;-75
2023/04/22 01:20:51;;;;;;;15.85;12.48;;;;;;;12.75;85.33;99169.44;5095237;28;20459;-76
2023/04/22 01:23:21;;;;;;;14.63;10.77;;;;;;;12.85;86.18;99172.91;5093420;28;20016;-75
2023/04/22 01:25:47;;;;;;;20.70;12.67;;;;;;;12.54;88.47;99164.03;5093531;28;20016;-75
2023/04/22 01:28:14;;;;;;;19.60;11.77;;;;;;;12.91;87.50;99169.50;5107627;28;20102;-76
2023/04/22 01:30:42;;;;;;;16.80;11.00;;;;;;;13.00;86.15;99166.53;5102132;28;20026;-75
2023/04/22 01:33:09;;;;;;;15.68;10.45;;;;;;;12.95;86.58;99158.38;5092782;28;20034;-74
2023/04/22 01:35:35;;;;;;;18.80;11.05;;;;;;;12.73;87.59;99154.13;5096990;28;20059;-76
2023/04/22 01:38:10;;;;;;;16.40;10.77;;;;;;;12.90;86.69;99158.63;5090048;28;20030;-75
2023/04/22 01:40:37;;;;;;;20.90;11.75;;;;;;;12.94;86.90;99159.56;5098013;28;20020;-76
2023/04/22 01:43:02;;;;;;;12.63;10.80;;;;;;;13.18;85.63;99154.97;5111623;28;20039;-76
2023/04/22 01:45:28;;;;;;;19.38;10.18;;;;;;;13.23;85.03;99153.91;5092111;28;20042;-75
2023/04/22 01:47:54;;;;;;;11.27;9.30;;;;;;;13.34;84.37;99155.78;5105194;28;20490;-73
2023/04/22 01:50:20;;;;;;;17.85;12.07;;;;;;;13.28;84.58;99157.25;5091620;28;20040;-75
2023/04/22 01:52:47;;;;;;;16.60;11.18;;;;;;;13.22;85.35;99155.88;5091039;28;20024;-76
2023/04/22 01:55:13;;;;;;;15.35;11.00;;;;;;;12.73;87.73;99157.78;5090944;28;20028;-75
2023/04/22 01:57:38;;;;;;;16.15;11.68;;;;;;;12.58;88.67;99148.13;5092498;28;20028;-74
2023/04/22 02:00:05;;;;;;;12.48;10.43;;;;;;;12.67;88.58;99150.78;5108956;28;20055;-74
2023/04/22 02:02:31;;;;;;;15.55;10.75;;;;;;;12.63;88.02;99149.84;5110712;28;20055;-76
2023/04/22 02:04:56;;;;;;;29.42;11.70;;;;;;;12.58;88.99;99150.91;5091803;28;20027;-75
2023/04/22 02:07:22;;;;;;;16.40;11.75;;;;;;;12.80;87.71;99145.13;5094396;28;20114;-74
2023/04/22 02:09:49;;;;;;;15.40;11.50;;;;;;;12.55;87.57;99146.03;5100084;28;20082;-76
2023/04/22 02:12:15;;;;;;;14.02;10.88;;;;;;;12.68;87.44;99152.41;5093698;28;20051;-75
2023/04/22 02:14:40;;;;;;;13.82;11.50;;;;;;;12.61;87.18;99149.41;5107030;28;20032;-76
2023/04/22 02:17:06;;;;;;;16.52;12.68;;;;;;;12.29;88.45;99150.09;5115518;28;20482;-76
2023/04/22 02:19:31;;;;;;;14.82;10.95;;;;;;;12.54;87.66;99147.22;5096891;28;20418;-75
2023/04/22 02:21:57;;;;;;;20.27;13.25;;;;;;;12.28;89.01;99144.81;5097144;28;20053;-76
2023/04/22 02:24:22;;;;;;;17.35;13.43;;;;;;;12.31;89.30;99142.13;5096828;28;20115;-75
2023/04/22 02:26:48;;;;;;;15.73;12.88;;;;;;;12.45;88.74;99144.56;5115302;28;20024;-75
2023/04/22 02:29:15;;;;;;;17.38;13.10;;;;;;;12.33;88.95;99142.59;5094719;28;20027;-75
2023/04/22 02:31:40;;;;;;;16.27;13.18;;;;;;;12.49;88.44;99142.66;5112237;28;20076;-75
2023/04/22 02:34:06;;;;;;;16.42;11.85;;;;;;;12.52;87.79;99140.31;5114961;28;20522;-75
2023/04/22 02:36:33;;;;;;;22.15;14.38;;;;;;;12.55;87.87;99139.59;5096267;28;20035;-76
2023/04/22 02:38:58;;;;;;;17.13;12.63;;;;;;;12.56;87.17;99144.84;5115001;28;20077;-76
2023/04/22 02:41:24;;;;;;;17.38;12.23;;;;;;;12.64;86.24;99145.88;5114803;28;20023;-75
2023/04/22 02:43:50;;;;;;;16.00;12.85;;;;;;;12.72;85.50;99147.72;5095197;28;20509;-76
2023/04/22 02:46:16;;;;;;;22.15;12.43;;;;;;;12.80;84.82;99147.94;5094166;28;20020;-75
2023/04/22 02:48:42;;;;;;;19.15;12.88;;;;;;;12.52;84.78;99152.38;5092049;28;20035;-76
2023/04/22 02:51:07;;;;;;;20.77;12.65;;;;;;;12.53;84.86;99154.00;5076115;28;20081;-75
2023/04/22 02:53:34;;;;;;;24.40;12.25;;;;;;;12.62;84.42;99156.66;5094237;28;20020;-75
2023/04/22 02:55:59;;;;;;;18.08;12.40;;;;;;;12.62;84.15;99156.66;5094254;28;20020;-76
2023/04/22 02:58:25;;;;;;;21.48;12.50;;;;;;;12.56;84.36;99158.88;5095946;28;20031;-76
2023/04/22 03:00:51;;;;;;;15.70;11.73;;;;;;;12.50;84.57;99154.72;5093680;28;20034;-75
2023/04/22 03:03:16;;;;;;;19.08;13.68;;;;;;;12.35;85.11;99145.06;5114532;28;20016;-75
2023/04/22 03:05:42;;;;;;;21.73;12.93;;;;;;;12.26;84.90;99153.63;5095904;28;20089;-76
2023/04/22 03:08:07;;;;;;;18.30;13.77;;;;;;;11.79;87.56;99158.53;5114553;28;20020;-76
2023/04/22 03:10:33;;;;;;;22.77;14.10;;;;;;;11.68;88.01;99164.94;5114225;28;20024;-75
2023/04/22 03:12:58;;;;;;;17.33;13.73;;;;;;;11.78;88.14;99162.53;5113603;28;20066;-75
2023/04/22 03:15:24;;;;;;;17.17;12.07;;;;;;;11.83;87.67;99157.84;5103023;28;20510;-75
2023/04/22 03:17:49;;;;;;;19.58;13.85;;;;;;;11.77;88.42;99163.69;5092729;28;20028;-76
2023/04/22 03:20:15;;;;;;;20.60;13.27;;;;;;;11.59;89.22;99156.66;5093136;28;20024;-75
2023/04/22 03:22:41;;;;;;;23.02;15.05;;;;;;;11.23;91.26;99159.09;5101731;28;20136;-76
2023/04/22 03:25:06;;;;;;;22.60;14.73;;;;;;;11.23;90.84;99153.50;5114167;28;20020;-75
2023/04/22 03:27:32;;;;;;;21.98;15.60;;;;;;;11.21;90.98;99155.81;5113387;28;20066;-75
2023/04/22 03:29:57;;;;;;;21.45;14.07;;;;;;;11.50;90.15;99157.59;5093818;28;20019;-76
2023/04/22 03:32:23;;;;;;;19.00;14.55;;;;;;;11.56;89.36;99160.97;5113893;28;20051;-75
2023/04/22 03:34:48;;;;;;;24.80;14.38;;;;;;;11.64;88.13;99171.25;5113743;28;20031;-75
2023/04/22 03:37:14;;;;;;;15.80;12.93;;;;;;;11.72;86.82;99171.50;5096995;28;20024;-76
2023/04/22 03:39:40;;;;;;;21.33;14.55;;;;;;;11.19;87.49;99164.56;5100818;28;20035;-76
2023/04/22 03:42:05;;;;;;;17.77;14.45;;;;;;;11.25;88.04;99165.16;5113695;28;20023;-75
2023/04/22 03:44:31;;;;;;;26.40;12.80;;;;;;;11.07;88.58;99168.13;5090949;28;20039;-75
2023/04/22 03:46:56;;;;;;;19.83;13.77;;;;;;;10.94;88.94;99160.88;5107862;28;20019;-74
2023/04/22 03:49:22;;;;;;;17.58;13.80;;;;;;;10.80;90.16;99164.00;5112976;28;20019;-75
2023/04/22 03:51:47;;;;;;;20.40;14.20;;;;;;;11.07;89.63;99170.94;5104913;28;20039;-74
2023/04/22 03:54:13;;;;;;;19.00;13.25;;;;;;;11.30;88.47;99180.91;5095388;28;20034;-75
2023/04/22 03:56:38;;;;;;;21.88;13.25;;;;;;;11.29;87.29;99177.28;5094820;28;20076;-75
2023/04/22 03:59:03;;;;;;;33.25;14.70;;;;;;;10.93;87.36;99179.66;5111771;28;20015;-75
2023/04/22 04:01:29;;;;;;;20.58;15.05;;;;;;;10.88;89.05;99196.66;5091436;28;20031;-75
2023/04/22 04:03:55;;;;;;;25.77;15.80;;;;;;;10.92;88.80;99193.97;5112907;28;20513;-75
2023/04/22 04:06:20;;;;;;;20.63;14.48;;;;;;;10.97;87.83;99198.56;5112955;28;20020;-76
2023/04/22 04:08:46;;;;;;;24.25;14.30;;;;;;;10.77;88.53;99201.03;5090970;28;20028;-73
2023/04/22 04:11:11;;;;;;;28.10;20.70;;;;;;;10.08;91.93;99198.41;5112313;28;20024;-75
2023/04/22 04:13:37;;;;;;;29.40;21.65;;;;;;;10.22;93.47;99201.75;5112694;28;20022;-75
2023/04/22 04:16:02;;;;;;;33.78;20.70;;;;;;;10.70;90.09;99207.19;5111098;28;20027;-76
2023/04/22 04:18:28;;;;;;;26.25;18.88;;;;;;;10.87;89.22;99200.59;5113190;28;20047;-75
2023/04/22 04:20:55;;;;;;;34.85;22.75;;;;;;;10.87;88.20;99217.41;5094696;28;20020;-76
2023/04/22 04:23:20;;;;;;;25.90;20.58;;;;;;;10.89;88.38;99217.06;5112223;28;20414;-75
2023/04/22 04:25:46;;;;;;;29.23;21.65;;;;;;;10.73;89.00;99212.09;5109847;28;20023;-76
2023/04/22 04:28:12;;;;;;;31.27;19.52;;;;;;;10.15;92.30;99212.66;5093947;28;20024;-76
2023/04/22 04:30:40;;;;;;;25.45;19.98;;;;;;;10.29;91.66;99211.59;5107882;28;20567;-76
2023/04/22 04:33:05;;;;;;;30.10;18.23;;;;;;;10.57;90.39;99223.09;5112701;28;20016;-76
2023/04/22 04:35:36;;;;;;;28.88;17.35;;;;;;;10.57;89.98;99209.13;5112557;28;20030;-72
2023/04/22 04:38:03;;;;;;;21.67;16.02;;;;;;;10.61;90.81;99215.66;5112685;28;20100;-72
2023/04/22 04:40:29;;;;;;;42.50;27.02;;;;;;;10.51;90.52;99202.91;5093932;28;20027;-72
2023/04/22 04:42:56;;;;;;;32.03;17.77;;;;;;;10.99;89.14;99211.03;5073191;28;20487;-71
2023/04/22 04:45:22;;;;;;;28.65;17.10;;;;;;;11.32;87.58;99217.78;5088962;28;20034;-70
2023/04/22 04:47:51;;;;;;;24.08;15.10;;;;;;;11.57;86.09;99226.25;5097367;28;20039;-69
2023/04/22 04:50:18;;;;;;;24.70;14.30;;;;;;;11.80;84.63;99221.00;5096743;28;20403;-72
2023/04/22 04:52:45;;;;;;;18.92;12.98;;;;;;;12.06;83.18;99228.25;5080467;28;20015;-68
2023/04/22 04:55:10;;;;;;;18.23;12.70;;;;;;;12.27;82.21;99221.72;5095848;27;20036;-72
2023/04/22 04:57:35;;;;;;;19.48;13.27;;;;;;;12.24;81.33;99220.41;5091691;28;20031;-73
2023/04/22 05:00:02;;;;;;;14.20;12.30;;;;;;;12.58;80.56;99226.66;5107212;27;20085;-73
2023/04/22 05:02:27;;;;;;;23.67;13.27;;;;;;;12.75;80.05;99228.38;5093400;28;20081;-72
2023/04/22 05:04:52;;;;;;;15.65;12.35;;;;;;;12.68;80.20;99232.97;5098384;28;20040;-77
2023/04/22 05:07:18;;;;;;;49.13;20.98;;;;;;;12.46;80.32;99232.31;5088160;28;20035;-76
2023/04/22 05:09:43;;;;;;;29.98;16.88;;;;;;;12.56;80.70;99231.81;5109127;28;20466;-72
2023/04/22 05:12:09;;;;;;;27.70;15.52;;;;;;;12.55;80.69;99232.16;5090317;28;20051;-73
2023/04/22 05:14:34;;;;;;;15.50;13.35;;;;;;;12.44;81.59;99226.25;5109581;28;20027;-73
2023/04/22 05:17:01;;;;;;;12.98;11.57;;;;;;;12.31;82.92;99236.69;5104204;28;20088;-73
2023/04/22 05:19:27;;;;;;;16.33;12.75;;;;;;;12.14;83.58;99240.56;5106581;28;20053;-74
2023/04/22 05:21:52;;;;;;;20.05;13.10;;;;;;;12.31;83.89;99242.28;5104876;28;20460;-73
2023/04/22 05:24:18;;;;;;;16.55;10.13;;;;;;;12.08;83.27;99245.56;5105362;28;20043;-73
2023/04/22 05:26:43;;;;;;;15.98;11.73;;;;;;;12.08;84.74;99234.34;5087353;28;20027;-74
2023/04/22 05:29:09;;;;;;;13.32;11.38;;;;;;;12.55;83.33;99233.00;5082921;28;20028;-72
2023/04/22 05:31:34;;;;;;;16.20;9.98;;;;;;;12.30;83.77;99235.84;5107297;28;20028;-72
2023/04/22 05:34:00;;;;;;;13.65;10.82;;;;;;;12.31;83.97;99231.06;5084034;28;20391;-72
2023/04/22 05:36:26;;;;;;;14.48;10.82;;;;;;;12.35;83.78;99235.59;5096671;28;20096;-72
2023/04/22 05:38:52;;;;;;;13.75;9.65;;;;;;;11.92;84.04;99237.00;5090496;28;20027;-72
2023/04/22 05:41:17;;;;;;;16.80;11.27;;;;;;;12.15;84.66;99239.38;5106137;28;20417;-74
2023/04/22 05:43:42;;;;;;;17.42;10.77;;;;;;;12.56;83.80;99234.63;5104554;28;20085;-75
2023/04/22 05:46:08;;;;;;;17.05;12.27;;;;;;;12.58;82.95;99228.69;5088303;28;20034;-74
2023/04/22 05:48:33;;;;;;;11.50;9.48;;;;;;;12.68;81.75;99233.78;5090198;28;20023;-74
2023/04/22 05:50:59;;;;;;;17.75;10.10;;;;;;;12.88;81.04;99237.59;5087311;28;20031;-72
2023/04/22 05:53:24;;;;;;;12.88;9.88;;;;;;;12.52;82.35;99241.31;5085589;28;20596;-74
2023/04/22 05:55:50;;;;;;;20.55;10.63;;;;;;;12.67;83.12;99243.38;5095865;28;20028;-74
2023/04/22 05:58:15;;;;;;;14.15;10.30;;;;;;;12.88;81.99;99245.19;5088287;28;20088;-72
2023/04/22 06:00:41;;;;;;;14.32;11.48;;;;;;;12.97;81.63;99245.84;5106219;28;20433;-73
2023/04/22 06:03:06;;;;;;;14.05;11.00;;;;;;;12.69;82.32;99245.81;5077462;28;20023;-74
2023/04/22 06:05:31;;;;;;;23.80;12.40;;;;;;;12.44;83.85;99241.09;5070486;28;20028;-76
2023/04/22 06:07:57;;;;;;;17.75;13.07;;;;;;;12.60;83.23;99246.78;5096328;28;20479;-71
2023/04/22 06:10:22;;;;;;;16.10;12.07;;;;;;;12.62;83.52;99240.81;5091695;28;20027;-73
2023/04/22 06:12:48;;;;;;;15.18;11.65;;;;;;;12.89;82.53;99252.41;5105402;28;20052;-77
2023/04/22 06:15:13;;;;;;;14.43;10.23;;;;;;;13.49;80.31;99251.72;5091370;28;20068;-73
2023/04/22 06:17:39;;;;;;;14.57;11.85;;;;;;;13.72;75.89;99243.50;5090630;28;20039;-73
2023/04/22 06:20:05;;;;;;;13.00;11.55;;;;;;;14.14;75.08;99247.75;5089491;28;20024;-73
2023/04/22 06:22:31;;;;;;;13.65;11.80;;;;;;;14.49;73.57;99242.50;5093172;28;20061;-73
2023/04/22 06:24:56;;;;;;;18.85;11.85;;;;;;;14.03;73.43;99253.09;5093263;28;20024;-74
2023/04/22 06:27:21;;;;;;;17.13;11.25;;;;;;;14.38;71.55;99254.34;5097566;28;20662;-73
2023/04/22 06:29:47;;;;;;;17.00;12.23;;;;;;;14.81;70.83;99256.50;5081001;28;20494;-72
2023/04/22 06:32:12;;;;;;;23.90;11.57;;;;;;;14.76;68.77;99256.81;5095662;28;20028;-73
2023/04/22 06:34:38;;;;;;;14.85;12.63;;;;;;;14.05;70.23;99252.75;5090202;28;20017;-74
2023/04/22 06:37:03;;;;;;;15.15;12.20;;;;;;;14.17;71.28;99252.63;5096042;28;20046;-75
2023/04/22 06:39:29;;;;;;;20.90;12.80;;;;;;;14.39;71.62;99250.34;5088528;28;20147;-73
2023/04/22 06:41:54;;;;;;;14.82;13.15;;;;;;;14.64;70.74;99249.25;5085868;28;20501;-74
2023/04/22 06:44:21;;;;;;;16.48;12.55;;;;;;;14.65;70.48;99245.25;5093804;28;20411;-74
2023/04/22 06:46:46;;;;;;;16.63;12.60;;;;;;;14.92;70.49;99242.66;5096046;28;20030;-74
2023/04/22 06:49:11;;;;;;;18.30;12.85;;;;;;;14.40;69.94;99243.53;5097801;28;20031;-77
2023/04/22 06:51:37;;;;;;;20.48;14.30;;;;;;;14.28;72.87;99250.06;5095586;28;20089;-74
2023/04/22 06:54:02;;;;;;;14.85;12.63;;;;;;;14.68;70.28;99247.34;5097303;28;20489;-76
2023/04/22 06:56:28;;;;;;;15.95;12.73;;;;;;;15.09;69.28;99253.47;5105033;28;20016;-76
2023/04/22 06:58:54;;;;;;;19.50;14.45;;;;;;;14.92;69.17;99240.66;5111978;28;20031;-77
2023/04/22 07:01:20;;;;;;;16.98;13.05;;;;;;;14.92;68.56;99243.47;5114544;28;20020;-76
2023/04/22 07:03:46;;;;;;;17.85;12.48;;;;;;;14.81;68.04;99248.06;5093221;28;20110;-74
2023/04/22 07:06:11;;;;;;;14.45;11.35;;;;;;;14.50;71.63;99252.59;5094665;28;20016;-74
2023/04/22 07:08:37;;;;;;;19.75;12.60;;;;;;;14.85;68.90;99255.41;5093926;28;20398;-74
2023/04/22 07:11:02;;;;;;;14.68;11.68;;;;;;;15.48;67.30;99241.34;5094261;28;20055;-74
2023/04/22 07:13:28;;;;;;;15.75;11.82;;;;;;;15.79;65.94;99242.28;5094086;28;20059;-74
2023/04/22 07:15:53;;;;;;;14.55;10.52;;;;;;;15.44;66.25;99241.28;5095116;28;20020;-74
2023/04/22 07:18:19;;;;;;;19.25;8.82;;;;;;;15.54;64.31;99247.50;5096868;28;20024;-74
2023/04/22 07:20:44;;;;;;;10.02;8.52;;;;;;;15.17;65.42;99245.97;5102553;28;20016;-74
2023/04/22 07:23:10;;;;;;;11.07;9.57;;;;;;;15.11;66.60;99239.81;5105463;28;20077;-74
2023/04/22 07:25:35;;;;;;;15.00;11.20;;;;;;;15.22;67.13;99242.88;5094101;28;20031;-74
2023/04/22 07:28:01;;;;;;;18.25;11.55;;;;;;;15.41;65.93;99244.03;5094170;28;20028;-74
2023/04/22 07:30:26;;;;;;;13.70;9.82;;;;;;;15.86;65.19;99245.25;5094559;28;20031;-74
2023/04/22 07:32:52;;;;;;;14.35;9.05;;;;;;;16.54;63.23;99243.91;5113404;28;20026;-73
2023/04/22 07:35:17;;;;;;;13.65;9.20;;;;;;;15.97;62.83;99239.00;5095995;28;20015;-73
2023/04/22 07:37:43;;;;;;;14.02;9.45;;;;;;;15.22;65.64;99244.88;5114015;28;20381;-73
2023/04/22 07:40:10;;;;;;;14.07;8.82;;;;;;;15.89;63.55;99242.84;5082563;28;20119;-73
2023/04/22 07:42:37;;;;;;;10.68;8.63;;;;;;;15.56;64.38;99248.72;5093979;28;20041;-74
2023/04/22 07:45:04;;;;;;;19.27;9.82;;;;;;;15.97;63.27;99239.81;5099969;28;20034;-73
2023/04/22 07:47:29;;;;;;;13.15;10.15;;;;;;;15.62;64.04;99237.97;5096306;28;20043;-73
2023/04/22 07:49:55;;;;;;;10.27;9.13;;;;;;;16.00;63.52;99233.44;5093859;28;20479;-73
2023/04/22 07:52:20;;;;;;;12.90;9.27;;;;;;;16.48;62.29;99237.78;5093609;28;20073;-73
2023/04/22 07:54:45;;;;;;;13.13;9.30;;;;;;;16.91;59.88;99239.56;5095865;28;20027;-73
2023/04/22 07:57:11;;;;;;;11.77;8.55;;;;;;;17.40;59.84;99238.53;5114134;28;20031;-73
2023/04/22 07:59:37;;;;;;;17.33;9.45;;;;;;;17.46;59.37;99235.38;5113724;28;20016;-73
2023/04/22 08:02:02;;;;;;;18.83;10.45;;;;;;;16.89;60.69;99230.66;5109867;28;20395;-75
2023/04/22 08:04:27;;;;;;;1066.35;356.73;;;;;;;16.61;60.72;99238.34;5075680;28;20039;-73
2023/04/22 08:06:53;;;;;;;21.73;11.50;;;;;;;16.47;60.90;99235.34;5075467;28;20024;-73
2023/04/22 08:09:19;;;;;;;51.60;28.85;;;;;;;16.92;61.95;99232.69;5093379;28;20032;-73
2023/04/22 08:11:44;;;;;;;15.35;10.00;;;;;;;17.24;60.62;99230.28;5101167;28;20055;-75
2023/04/22 08:14:10;;;;;;;22.98;8.90;;;;;;;17.46;58.24;99224.88;5095712;28;20122;-76
2023/04/22 08:16:37;;;;;;;51.58;33.47;;;;;;;17.74;56.83;99228.38;5095123;28;20042;-73
2023/04/22 08:19:02;;;;;;;1999.90;514.67;;;;;;;17.90;56.21;99231.75;5095408;28;20029;-74
2023/04/22 08:21:28;;;;;;;23.92;11.77;;;;;;;18.42;55.05;99227.31;5082810;28;20467;-73
2023/04/22 08:23:53;;;;;;;87.95;64.03;;;;;;;18.51;53.47;99228.56;5092460;28;20031;-75
2023/04/22 08:26:19;;;;;;;531.88;401.98;;;;;;;18.07;55.33;99230.28;5113665;28;20362;-77
2023/04/22 08:28:45;;;;;;;1331.30;557.53;;;;;;;18.61;53.65;99227.03;5095257;28;20027;-76
2023/04/22 08:31:11;;;;;;;285.05;219.35;;;;;;;19.08;53.38;99217.97;5106528;28;20133;-76
2023/04/22 08:33:38;;;;;;;381.30;327.13;;;;;;;18.42;53.44;99219.63;5093454;28;20031;-76
2023/04/22 08:36:05;;;;;;;44.13;20.70;;;;;;;18.86;53.16;99226.34;5074523;28;20024;-75
2023/04/22 08:38:32;;;;;;;14.93;10.52;;;;;;;18.85;54.15;99215.41;5088575;28;20027;-76
2023/04/22 08:40:58;;;;;;;18.55;11.90;;;;;;;19.15;53.05;99206.63;5094935;28;20496;-78
2023/04/22 08:43:26;;;;;;;130.32;96.38;;;;;;;18.66;53.27;99204.00;5113499;28;20054;-73
2023/04/22 08:45:52;;;;;;;908.58;559.17;;;;;;;18.84;53.32;99208.13;5113895;28;20012;-80
2023/04/22 08:48:18;;;;;;;689.22;508.85;;;;;;;18.18;54.38;99206.94;5113401;28;20077;-74
2023/04/22 08:50:46;;;;;;;111.95;77.30;;;;;;;18.95;54.82;99197.63;5112999;28;20024;-73
2023/04/22 08:53:12;;;;;;;13.40;11.18;;;;;;;19.59;54.22;99181.22;5089570;28;20031;-73
2023/04/22 08:55:42;;;;;;;10.45;8.27;;;;;;;19.43;52.70;99193.75;5087884;28;20049;-71
2023/04/22 08:58:09;;;;;;;9.18;7.43;;;;;;;19.69;51.23;99186.09;5074409;28;20567;-71
2023/04/22 09:00:35;;;;;;;17.48;12.75;;;;;;;19.57;50.33;99180.81;5074272;28;20040;-73
2023/04/22 09:03:02;;;;;;;48.22;37.80;;;;;;;18.77;52.49;99187.06;5102770;28;20031;-79
2023/04/22 09:05:31;;;;;;;25.35;17.40;;;;;;;18.44;54.04;99173.94;5113687;28;20016;-76
2023/04/22 09:07:57;;;;;;;137.10;88.73;;;;;;;18.58;54.35;99176.84;5108632;28;20102;-73
2023/04/22 09:10:23;;;;;;;165.85;119.90;;;;;;;18.67;53.44;99179.31;5109163;28;20512;-75
2023/04/22 09:12:50;;;;;;;44.78;33.40;;;;;;;18.57;53.85;99175.22;5111828;28;20044;-75
2023/04/22 09:15:15;;;;;;;358.70;242.77;;;;;;;18.91;55.37;99169.28;5091254;28;20024;-74
2023/04/22 09:17:42;;;;;;;18.27;16.33;;;;;;;19.62;51.59;99167.03;5092094;28;20070;-73
2023/04/22 09:20:08;;;;;;;20.90;14.07;;;;;;;19.40;51.84;99163.34;5085060;28;20474;-75
2023/04/22 09:22:45;;;;;;;17.45;9.70;;;;;;;19.41;51.24;99159.31;5092404;28;20061;-76
2023/04/22 09:25:31;;;;;;;178.05;103.07;;;;;;;19.99;52.59;99161.41;5112385;28;20039;-77
2023/04/22 09:27:58;;;;;;;155.55;123.75;;;;;;;20.62;51.94;99153.09;5094279;28;20435;-76
2023/04/22 09:30:33;;;;;;;238.60;169.27;;;;;;;20.80;51.88;99157.91;5102054;28;20160;-85
2023/04/22 09:33:00;;;;;;;31.83;18.52;;;;;;;20.95;50.79;99147.34;5085321;28;20073;-75
2023/04/22 09:35:33;;;;;;;25.75;15.50;;;;;;;21.07;48.36;99139.56;5091512;28;20085;-76
2023/04/22 09:38:01;;;;;;;42.03;11.85;;;;;;;20.94;49.90;99136.34;5099000;28;20028;-73
2023/04/22 09:40:28;;;;;;;587.50;115.10;;;;;;;21.18;48.03;99118.34;5091733;28;20035;-78
2023/04/22 09:42:57;;;;;;;20.20;9.23;;;;;;;21.50;47.03;99115.69;5097718;28;20032;-78
2023/04/22 09:45:31;;;;;;;11.02;7.53;;;;;;;21.46;44.61;99118.56;5102551;28;20371;-78
2023/04/22 09:48:01;;;;;;;8.68;7.35;;;;;;;21.59;45.07;99116.81;5075234;28;20390;-77
2023/04/22 09:50:27;;;;;;;;;;;;;;;21.94;47.19;99116.16;5102254;28;20024;-76
2023/04/22 09:52:59;;;;;;;80.07;20.13;;;;;;;22.12;46.64;99113.91;5107522;28;19918;-76
2023/04/22 09:55:26;;;;;;;42.67;9.02;;;;;;;22.19;46.84;99104.47;5098449;28;20505;-72
2023/04/22 09:57:53;;;;;;;12.98;8.93;;;;;;;22.18;44.24;99105.72;5088637;28;20028;-75
2023/04/22 10:00:19;;;;;;;10.18;8.50;;;;;;;21.99;43.45;99107.97;5096136;28;20023;-70
2023/04/22 10:02:45;;;;;;;9.02;6.85;;;;;;;21.95;42.17;99107.16;5101011;28;20107;-69
2023/04/22 10:05:11;;;;;;;12.38;6.10;;;;;;;21.61;41.89;99107.88;5078451;28;20025;-71
2023/04/22 10:07:38;;;;;;;13.55;7.45;;;;;;;21.63;43.49;99105.41;5096589;28;20047;-69
2023/04/22 10:10:07;;;;;;;15.90;7.90;;;;;;;21.58;41.38;99100.97;5084721;28;20433;-73
2023/04/22 10:12:34;;;;;;;8.68;6.72;;;;;;;22.05;41.16;99096.09;5091275;28;20217;-71
2023/04/22 10:15:00;;;;;;;9.05;7.30;;;;;;;22.13;40.22;99095.59;5088677;28;20024;-70
2023/04/22 10:17:30;;;;;;;10.25;8.15;;;;;;;22.31;40.11;99097.44;5090110;28;20028;-73
2023/04/22 10:19:57;;;;;;;7.47;6.70;;;;;;;22.08;41.43;99087.53;5100906;28;20020;-76
2023/04/22 10:22:22;;;;;;;7.90;6.75;;;;;;;21.95;40.80;99098.63;5077094;28;20032;-72
2023/04/22 10:24:49;;;;;;;9.70;5.80;;;;;;;21.73;41.74;99093.16;5083071;28;20035;-72
2023/04/22 10:27:21;;;;;;;9.38;5.63;;;;;;;21.86;40.37;99090.59;5095226;28;20024;-73
2023/04/22 10:29:46;;;;;;;7.82;5.45;;;;;;;21.85;39.93;99096.72;5081471;28;20534;-72
2023/04/22 10:32:18;;;;;;;7.00;5.15;;;;;;;22.18;40.17;99099.22;5098792;28;20028;-72
2023/04/22 10:34:45;;;;;;;7.50;6.32;;;;;;;22.37;40.39;99097.78;5099567;28;20031;-72
2023/04/22 10:37:12;;;;;;;8.48;6.00;;;;;;;22.47;40.29;99078.94;5098356;28;20016;-73
2023/04/22 10:39:40;;;;;;;6.50;5.45;;;;;;;21.99;39.12;99093.72;5094852;28;20468;-72
2023/04/22 10:42:09;;;;;;;7.25;5.90;;;;;;;21.52;40.81;99099.00;5099590;27;20027;-72
2023/04/22 10:44:51;;;;;;;9.32;6.65;;;;;;;21.41;41.13;99096.22;5098688;28;20015;-72
2023/04/22 10:47:43;;;;;;;8.20;6.90;;;;;;;21.53;41.39;99089.25;5081785;28;20116;-72
2023/04/22 10:50:25;;;;;;;11.25;7.40;;;;;;;21.57;40.62;99092.84;5101446;28;20032;-72
2023/04/22 10:53:02;;;;;;;9.63;7.50;;;;;;;21.70;44.44;99090.34;5075185;28;20032;-72
2023/04/22 10:55:49;;;;;;;9.45;7.22;;;;;;;21.42;41.46;99101.50;5097568;28;20034;-72
2023/04/22 10:58:19;;;;;;;13.15;7.30;;;;;;;21.03;43.78;99096.94;5100701;28;20028;-72
2023/04/22 11:00:44;;;;;;;;;;;;;;;21.10;44.49;99094.03;5103935;28;20405;-72
2023/04/22 11:03:12;;;;;;;20.83;9.98;;;;;;;20.93;44.12;99097.78;5103166;28;19911;-72
2023/04/22 11:05:38;;;;;;;15.95;6.80;;;;;;;20.64;43.99;99095.09;5087655;28;20474;-71
2023/04/22 11:08:27;;;;;;;18.23;9.50;;;;;;;20.93;44.91;99095.75;5098017;28;20050;-72
2023/04/22 11:11:07;;;;;;;11.88;7.93;;;;;;;20.93;44.67;99103.47;5084558;28;20043;-72
2023/04/22 11:13:33;;;;;;;12.75;5.88;;;;;;;20.58;43.95;99121.06;5098122;28;20127;-71
2023/04/22 11:15:58;;;;;;;12.98;7.07;;;;;;;20.30;45.32;99124.81;5107563;28;20110;-71